Time,TemperatureF,DewpointF,PressureIn,WindDirection,WindDirectionDegrees,WindSpeedMPH,WindSpeedGustMPH,Humidity,HourlyPrecipIn,Conditions,Clouds,dailyrainin,SoftwareType,DateUTC
2013-07-30 00:01:00,56.8,55.4,30.23,SSW,198,0.0,0.0,95,0.00,,,0.00,meteohub,2013-07-30 04:01:00,
2013-07-30 00:02:00,56.8,55.4,30.23,SSW,198,0.0,0.0,95,0.00,,,0.00,meteohub,2013-07-30 04:02:00,
2013-07-30 00:03:00,56.8,55.4,30.23,SSW,198,0.0,0.0,95,0.00,,,0.00,meteohub,2013-07-30 04:03:00,
2013-07-30 00:08:00,56.7,55.2,30.23,SSW,198,0.0,0.0,95,0.00,,,0.00,meteohub,2013-07-30 04:08:00,
2013-07-30 00:13:00,56.7,55.6,30.23,SSW,198,0.0,0.0,96,0.00,,,0.00,meteohub,2013-07-30 04:13:00,
2013-07-30 00:19:00,57.0,55.9,30.23,SSW,198,0.0,0.0,96,0.00,,,0.00,meteohub,2013-07-30 04:19:00,
2013-07-30 00:24:00,57.0,55.9,30.24,SSW,198,0.0,0.0,96,0.00,,,0.00,meteohub,2013-07-30 04:24:00,
2013-07-30 00:29:00,56.8,55.8,30.23,SSW,198,0.0,1.0,96,0.00,,,0.00,meteohub,2013-07-30 04:29:00,
2013-07-30 00:35:00,57.0,55.9,30.23,SSW,198,0.0,0.0,96,0.00,,,0.00,meteohub,2013-07-30 04:35:00,
2013-07-30 00:40:00,57.0,55.9,30.23,SSW,198,0.0,0.0,96,0.00,,,0.00,meteohub,2013-07-30 04:40:00,
2013-07-30 00:45:00,57.0,55.9,30.23,SSW,198,0.0,0.0,96,0.00,,,0.00,meteohub,2013-07-30 04:45:00,
2013-07-30 00:50:00,56.8,55.8,30.23,SSW,198,0.0,0.0,96,0.00,,,0.00,meteohub,2013-07-30 04:50:00,
2013-07-30 00:55:00,56.7,55.6,30.23,SSW,198,0.0,0.0,96,0.00,,,0.00,meteohub,2013-07-30 04:55:00,
2013-07-30 01:00:00,56.7,55.6,30.24,SSW,198,0.0,0.0,96,0.00,,,0.00,meteohub,2013-07-30 05:00:00,
2013-07-30 01:06:00,56.7,55.6,30.24,SSW,198,0.0,1.0,96,0.00,,,0.00,meteohub,2013-07-30 05:06:00,
2013-07-30 01:11:00,56.5,55.4,30.23,SSW,198,0.0,1.0,96,0.00,,,0.00,meteohub,2013-07-30 05:11:00,
2013-07-30 01:16:00,56.1,55.0,30.24,SSW,198,0.0,1.0,96,0.00,,,0.00,meteohub,2013-07-30 05:16:00,
2013-07-30 01:21:00,56.1,55.0,30.24,SSW,198,0.0,0.0,96,0.00,,,0.00,meteohub,2013-07-30 05:21:00,
2013-07-30 01:27:00,55.9,54.9,30.23,SSW,198,0.0,0.0,96,0.00,,,0.00,meteohub,2013-07-30 05:27:00,
2013-07-30 01:32:00,55.8,54.7,30.23,SSW,198,0.0,0.0,96,0.00,,,0.00,meteohub,2013-07-30 05:32:00,
2013-07-30 01:37:00,55.6,54.5,30.23,SSW,198,0.0,0.0,96,0.00,,,0.00,meteohub,2013-07-30 05:37:00,
2013-07-30 01:42:00,55.6,54.5,30.23,SSW,198,0.0,0.0,96,0.00,,,0.00,meteohub,2013-07-30 05:42:00,
2013-07-30 01:47:00,55.4,54.3,30.23,SSW,198,0.0,0.0,96,0.00,,,0.00,meteohub,2013-07-30 05:47:00,
2013-07-30 01:52:00,55.2,54.1,30.23,SSW,198,0.0,0.0,96,0.00,,,0.00,meteohub,2013-07-30 05:52:00,
2013-07-30 01:58:00,55.0,54.0,30.23,SSW,198,0.0,0.0,96,0.00,,,0.00,meteohub,2013-07-30 05:58:00,
2013-07-30 02:03:00,55.0,54.0,30.23,SSW,198,0.0,0.0,96,0.00,,,0.00,meteohub,2013-07-30 06:03:00,
2013-07-30 02:08:00,55.0,54.0,30.23,SSW,198,0.0,0.0,96,0.00,,,0.00,meteohub,2013-07-30 06:08:00,
2013-07-30 02:13:00,55.0,54.1,30.24,SSW,198,0.0,0.0,97,0.00,,,0.00,meteohub,2013-07-30 06:13:00,
2013-07-30 02:19:00,55.0,54.1,30.24,SSW,198,0.0,0.0,97,0.00,,,0.00,meteohub,2013-07-30 06:19:00,
2013-07-30 02:24:00,55.0,54.1,30.24,SSW,198,0.0,0.0,97,0.00,,,0.00,meteohub,2013-07-30 06:24:00,
2013-07-30 02:29:00,55.0,54.1,30.24,SSW,198,0.0,0.0,97,0.00,,,0.00,meteohub,2013-07-30 06:29:00,
2013-07-30 02:34:00,55.0,54.1,30.24,SSW,198,0.0,0.0,97,0.00,,,0.00,meteohub,2013-07-30 06:34:00,
2013-07-30 02:40:00,55.2,54.3,30.23,SSW,198,0.0,0.0,97,0.00,,,0.00,meteohub,2013-07-30 06:40:00,
2013-07-30 02:45:00,55.6,54.7,30.23,SSW,198,0.0,0.0,97,0.00,,,0.00,meteohub,2013-07-30 06:45:00,
2013-07-30 02:50:00,55.8,54.9,30.23,SSW,198,0.0,0.0,97,0.00,,,0.00,meteohub,2013-07-30 06:50:00,
2013-07-30 02:56:00,55.9,55.0,30.23,SSW,198,0.0,0.0,97,0.00,,,0.00,meteohub,2013-07-30 06:56:00,
2013-07-30 03:01:00,56.1,55.2,30.23,SSW,198,0.0,1.0,97,0.00,,,0.00,meteohub,2013-07-30 07:01:00,
2013-07-30 03:07:00,55.9,55.0,30.23,SSW,198,0.0,1.0,97,0.00,,,0.00,meteohub,2013-07-30 07:07:00,
2013-07-30 03:12:00,55.9,55.0,30.23,SSW,198,0.0,1.0,97,0.00,,,0.00,meteohub,2013-07-30 07:12:00,
2013-07-30 03:17:00,55.9,55.0,30.23,SSW,198,0.0,0.0,97,0.00,,,0.00,meteohub,2013-07-30 07:17:00,
2013-07-30 03:22:00,55.9,55.0,30.24,SSW,198,0.0,0.0,97,0.00,,,0.00,meteohub,2013-07-30 07:22:00,
2013-07-30 03:27:00,55.8,54.9,30.24,SSW,198,0.0,1.0,97,0.00,,,0.00,meteohub,2013-07-30 07:27:00,
2013-07-30 03:33:00,55.6,54.7,30.23,SSW,198,0.0,1.0,97,0.00,,,0.00,meteohub,2013-07-30 07:33:00,
2013-07-30 03:38:00,55.6,54.7,30.23,SSW,198,0.0,1.0,97,0.00,,,0.00,meteohub,2013-07-30 07:38:00,
2013-07-30 03:43:00,55.6,54.7,30.24,SSW,198,0.0,1.0,97,0.00,,,0.00,meteohub,2013-07-30 07:43:00,
2013-07-30 03:49:00,55.4,54.5,30.24,SSW,198,0.0,0.0,97,0.00,,,0.00,meteohub,2013-07-30 07:49:00,
2013-07-30 03:54:00,55.2,54.3,30.24,SSW,198,0.0,0.0,97,0.00,,,0.00,meteohub,2013-07-30 07:54:00,
2013-07-30 03:59:00,55.2,54.3,30.24,SSW,198,1.0,1.0,97,0.00,,,0.00,meteohub,2013-07-30 07:59:00,
2013-07-30 04:04:00,55.4,54.5,30.24,SSW,198,0.0,1.0,97,0.00,,,0.00,meteohub,2013-07-30 08:04:00,
2013-07-30 04:09:00,55.4,54.5,30.24,SSW,198,0.0,3.0,97,0.00,,,0.00,meteohub,2013-07-30 08:09:00,
2013-07-30 04:14:00,55.4,54.5,30.24,SSW,198,1.0,3.0,97,0.00,,,0.00,meteohub,2013-07-30 08:14:00,
2013-07-30 04:19:00,55.4,54.5,30.24,SSW,198,0.0,3.0,97,0.00,,,0.00,meteohub,2013-07-30 08:19:00,
2013-07-30 04:25:00,55.0,54.1,30.24,SSW,198,0.0,2.0,97,0.00,,,0.00,meteohub,2013-07-30 08:25:00,
2013-07-30 04:30:00,54.9,54.0,30.24,SSW,198,0.0,2.0,97,0.00,,,0.00,meteohub,2013-07-30 08:30:00,
2013-07-30 04:36:00,54.7,53.8,30.24,SSW,198,0.0,0.0,97,0.00,,,0.00,meteohub,2013-07-30 08:36:00,
2013-07-30 04:41:00,54.5,53.6,30.25,SSW,198,0.0,0.0,97,0.00,,,0.00,meteohub,2013-07-30 08:41:00,
2013-07-30 04:46:00,54.3,53.4,30.25,SSW,198,0.0,0.0,97,0.00,,,0.00,meteohub,2013-07-30 08:46:00,
2013-07-30 04:51:00,54.3,53.4,30.24,SSW,198,0.0,0.0,97,0.00,,,0.00,meteohub,2013-07-30 08:51:00,
2013-07-30 04:56:00,54.1,53.2,30.24,SSW,198,0.0,0.0,97,0.00,,,0.00,meteohub,2013-07-30 08:56:00,
2013-07-30 05:02:00,54.1,53.2,30.25,SSW,198,0.0,0.0,97,0.00,,,0.00,meteohub,2013-07-30 09:02:00,
2013-07-30 05:07:00,54.1,53.2,30.25,SSW,198,0.0,0.0,97,0.00,,,0.00,meteohub,2013-07-30 09:07:00,
2013-07-30 05:12:00,54.1,53.2,30.25,SSW,198,0.0,1.0,97,0.00,,,0.00,meteohub,2013-07-30 09:12:00,
2013-07-30 05:18:00,54.3,53.4,30.25,SSW,198,0.0,1.0,97,0.00,,,0.00,meteohub,2013-07-30 09:18:00,
2013-07-30 05:23:00,54.3,53.4,30.25,SSW,198,0.0,1.0,97,0.00,,,0.00,meteohub,2013-07-30 09:23:00,
2013-07-30 05:28:00,54.0,53.1,30.25,SSW,198,0.0,1.0,97,0.00,,,0.00,meteohub,2013-07-30 09:28:00,
2013-07-30 05:33:00,54.0,53.1,30.25,SSW,198,0.0,1.0,97,0.00,,,0.00,meteohub,2013-07-30 09:33:00,
2013-07-30 05:38:00,53.8,52.9,30.25,SSW,198,0.0,1.0,97,0.00,,,0.00,meteohub,2013-07-30 09:38:00,
2013-07-30 05:44:00,53.6,52.7,30.25,SSW,198,0.0,0.0,97,0.00,,,0.00,meteohub,2013-07-30 09:44:00,
2013-07-30 05:49:00,53.4,52.5,30.25,SSW,198,0.0,0.0,97,0.00,,,0.00,meteohub,2013-07-30 09:49:00,
2013-07-30 05:55:00,53.4,52.5,30.25,SSW,198,0.0,0.0,97,0.00,,,0.00,meteohub,2013-07-30 09:55:00,
2013-07-30 06:00:00,53.2,52.3,30.25,SSW,198,0.0,0.0,97,0.00,,,0.00,meteohub,2013-07-30 10:00:00,
2013-07-30 06:05:00,53.2,52.3,30.25,SSW,198,0.0,0.0,97,0.00,,,0.00,meteohub,2013-07-30 10:05:00,
2013-07-30 06:10:00,53.2,52.3,30.25,SSW,198,0.0,0.0,97,0.00,,,0.00,meteohub,2013-07-30 10:10:00,
2013-07-30 06:15:00,53.2,52.3,30.25,SSW,198,0.0,0.0,97,0.00,,,0.00,meteohub,2013-07-30 10:15:00,
2013-07-30 06:20:00,53.2,52.3,30.25,SSW,198,0.0,0.0,97,0.00,,,0.00,meteohub,2013-07-30 10:20:00,
2013-07-30 06:25:00,53.6,52.7,30.26,SSW,198,3.0,0.0,97,0.00,,,0.00,meteohub,2013-07-30 10:25:00,
2013-07-30 06:30:00,53.8,52.9,30.26,SSW,198,2.0,0.0,97,0.00,,,0.00,meteohub,2013-07-30 10:30:00,
2013-07-30 06:35:00,54.0,53.4,30.26,SSW,198,0.0,0.0,98,0.00,,,0.00,meteohub,2013-07-30 10:35:00,
2013-07-30 06:41:00,54.1,53.6,30.26,SSW,198,0.0,3.0,98,0.00,,,0.00,meteohub,2013-07-30 10:41:00,
2013-07-30 06:46:00,54.1,53.6,30.26,SSW,198,1.0,3.0,98,0.00,,,0.00,meteohub,2013-07-30 10:46:00,
2013-07-30 06:51:00,54.1,53.2,30.26,SSW,198,0.0,3.0,97,0.00,,,0.00,meteohub,2013-07-30 10:51:00,
2013-07-30 06:56:00,54.1,53.2,30.27,SSW,198,2.0,3.0,97,0.00,,,0.00,meteohub,2013-07-30 10:56:00,
2013-07-30 07:01:00,54.0,53.1,30.27,SSW,198,0.0,3.0,97,0.00,,,0.00,meteohub,2013-07-30 11:01:00,
2013-07-30 07:07:00,54.0,53.1,30.27,SSW,198,0.0,3.0,97,0.00,,,0.00,meteohub,2013-07-30 11:07:00,
2013-07-30 07:12:00,54.0,53.1,30.27,SSW,198,2.0,4.0,97,0.00,,,0.00,meteohub,2013-07-30 11:12:00,
2013-07-30 07:17:00,54.0,53.1,30.27,SSW,198,0.0,4.0,97,0.00,,,0.00,meteohub,2013-07-30 11:17:00,
2013-07-30 07:23:00,54.1,53.6,30.27,SSW,198,1.0,3.0,98,0.00,,,0.00,meteohub,2013-07-30 11:23:00,
2013-07-30 07:28:00,54.1,53.6,30.27,SSW,198,1.0,3.0,98,0.00,,,0.00,meteohub,2013-07-30 11:28:00,
2013-07-30 07:33:00,54.3,53.4,30.27,SSW,198,0.0,3.0,97,0.00,,,0.00,meteohub,2013-07-30 11:33:00,
2013-07-30 07:39:00,54.7,54.1,30.27,SSW,198,1.0,3.0,98,0.00,,,0.00,meteohub,2013-07-30 11:39:00,
2013-07-30 07:44:00,54.9,54.3,30.27,SSW,198,1.0,4.0,98,0.00,,,0.00,meteohub,2013-07-30 11:44:00,
2013-07-30 07:49:00,54.9,54.0,30.27,SSW,198,1.0,4.0,97,0.00,,,0.00,meteohub,2013-07-30 11:49:00,
2013-07-30 07:55:00,55.2,54.7,30.27,SSW,198,0.0,4.0,98,0.00,,,0.00,meteohub,2013-07-30 11:55:00,
2013-07-30 08:00:00,55.8,55.2,30.28,SSW,198,0.0,4.0,98,0.00,,,0.00,meteohub,2013-07-30 12:00:00,
2013-07-30 08:05:00,56.1,55.6,30.28,SSW,198,0.0,4.0,98,0.00,,,0.00,meteohub,2013-07-30 12:05:00,
2013-07-30 08:11:00,56.7,56.1,30.28,SSW,198,0.0,4.0,98,0.00,,,0.00,meteohub,2013-07-30 12:11:00,
2013-07-30 08:16:00,57.0,56.5,30.27,SSW,198,0.0,4.0,98,0.00,,,0.00,meteohub,2013-07-30 12:16:00,
2013-07-30 08:21:00,57.7,57.2,30.27,SSW,198,0.0,4.0,98,0.00,,,0.00,meteohub,2013-07-30 12:21:00,
2013-07-30 08:27:00,58.3,57.4,30.28,SSW,198,0.0,3.0,97,0.00,,,0.00,meteohub,2013-07-30 12:27:00,
2013-07-30 08:32:00,58.8,57.9,30.28,SSW,198,0.0,3.0,97,0.00,,,0.00,meteohub,2013-07-30 12:32:00,
2013-07-30 08:38:00,59.4,58.5,30.28,SSW,198,0.0,2.0,97,0.00,,,0.00,meteohub,2013-07-30 12:38:00,
2013-07-30 08:43:00,59.9,58.8,30.28,SSW,198,0.0,2.0,96,0.00,,,0.00,meteohub,2013-07-30 12:43:00,
2013-07-30 08:48:00,60.4,59.0,30.28,SSW,198,0.0,2.0,95,0.00,,,0.00,meteohub,2013-07-30 12:48:00,
2013-07-30 08:53:00,61.0,59.2,30.28,SSW,198,0.0,2.0,94,0.00,,,0.00,meteohub,2013-07-30 12:53:00,
2013-07-30 08:59:00,61.5,59.5,30.28,SSW,198,0.0,2.0,93,0.00,,,0.00,meteohub,2013-07-30 12:59:00,
2013-07-30 09:04:00,62.2,59.9,30.28,SSW,198,2.0,2.0,92,0.00,,,0.00,meteohub,2013-07-30 13:04:00,
2013-07-30 09:09:00,62.8,60.1,30.28,SSW,198,2.0,3.0,91,0.00,,,0.00,meteohub,2013-07-30 13:09:00,
2013-07-30 09:15:00,63.3,60.3,30.28,SSW,198,0.0,4.0,90,0.00,,,0.00,meteohub,2013-07-30 13:15:00,
2013-07-30 09:20:00,63.9,60.3,30.28,SSW,198,2.0,4.0,88,0.00,,,0.00,meteohub,2013-07-30 13:20:00,
2013-07-30 09:26:00,64.6,60.6,30.27,SSW,198,0.0,3.0,87,0.00,,,0.00,meteohub,2013-07-30 13:26:00,
2013-07-30 09:31:00,64.9,59.9,30.27,SSW,198,0.0,3.0,84,0.00,,,0.00,meteohub,2013-07-30 13:31:00,
2013-07-30 09:36:00,65.7,60.4,30.27,SSW,198,1.0,3.0,83,0.00,,,0.00,meteohub,2013-07-30 13:36:00,
2013-07-30 09:42:00,66.4,60.8,30.28,SSW,198,4.0,4.0,82,0.00,,,0.00,meteohub,2013-07-30 13:42:00,
2013-07-30 09:47:00,66.6,59.9,30.28,SSW,198,0.0,3.0,79,0.00,,,0.00,meteohub,2013-07-30 13:47:00,
2013-07-30 09:52:00,66.9,59.9,30.27,SW,215,0.0,3.0,78,0.00,,,0.00,meteohub,2013-07-30 13:52:00,
2013-07-30 09:57:00,67.5,59.5,30.27,SW,215,2.0,6.0,76,0.00,,,0.00,meteohub,2013-07-30 13:57:00,
2013-07-30 10:02:00,67.6,59.4,30.27,South,187,1.0,6.0,75,0.00,,,0.00,meteohub,2013-07-30 14:02:00,
2013-07-30 10:07:00,67.8,60.3,30.27,South,188,0.0,5.0,77,0.00,,,0.00,meteohub,2013-07-30 14:07:00,
2013-07-30 10:12:00,68.4,60.8,30.27,SSW,196,5.0,5.0,77,0.00,,,0.00,meteohub,2013-07-30 14:12:00,
2013-07-30 10:18:00,68.7,59.7,30.27,SSW,202,2.0,7.0,73,0.00,,,0.00,meteohub,2013-07-30 14:18:00,
2013-07-30 10:23:00,69.3,60.3,30.27,South,188,0.0,7.0,73,0.00,,,0.00,meteohub,2013-07-30 14:23:00,
2013-07-30 10:28:00,70.0,61.0,30.27,South,188,0.0,7.0,73,0.00,,,0.00,meteohub,2013-07-30 14:28:00,
2013-07-30 10:33:00,70.3,58.8,30.27,ESE,115,0.0,7.0,67,0.00,,,0.00,meteohub,2013-07-30 14:33:00,
2013-07-30 10:38:00,70.3,57.2,30.27,SSW,200,4.0,4.0,63,0.00,,,0.00,meteohub,2013-07-30 14:38:00,
2013-07-30 10:43:00,69.6,57.4,30.27,SSW,200,2.0,3.0,65,0.00,,,0.00,meteohub,2013-07-30 14:43:00,
2013-07-30 10:49:00,69.6,58.6,30.27,NNE,32,0.0,7.0,68,0.00,,,0.00,meteohub,2013-07-30 14:49:00,
2013-07-30 10:54:00,69.6,60.3,30.27,NNE,16,0.0,5.0,72,0.00,,,0.00,meteohub,2013-07-30 14:54:00,
2013-07-30 10:59:00,70.0,58.1,30.27,NNE,27,0.0,5.0,66,0.00,,,0.00,meteohub,2013-07-30 14:59:00,
2013-07-30 11:05:00,70.7,58.8,30.27,NNE,27,0.0,3.0,66,0.00,,,0.00,meteohub,2013-07-30 15:05:00,
2013-07-30 11:10:00,71.2,60.6,30.27,NE,45,0.0,3.0,69,0.00,,,0.00,meteohub,2013-07-30 15:10:00,
2013-07-30 11:16:00,71.8,59.0,30.27,East,84,0.0,2.0,64,0.00,,,0.00,meteohub,2013-07-30 15:16:00,
2013-07-30 11:21:00,72.1,58.8,30.27,NE,50,1.0,2.0,63,0.00,,,0.00,meteohub,2013-07-30 15:21:00,
2013-07-30 11:26:00,72.0,57.4,30.27,North,10,0.0,4.0,60,0.00,,,0.00,meteohub,2013-07-30 15:26:00,
2013-07-30 11:31:00,72.0,58.6,30.27,North,10,1.0,4.0,63,0.00,,,0.00,meteohub,2013-07-30 15:31:00,
2013-07-30 11:37:00,71.8,58.5,30.27,NNE,28,0.0,4.0,63,0.00,,,0.00,meteohub,2013-07-30 15:37:00,
2013-07-30 11:42:00,71.4,60.3,30.27,NNE,28,0.0,4.0,68,0.00,,,0.00,meteohub,2013-07-30 15:42:00,
2013-07-30 11:47:00,71.2,60.1,30.27,East,84,0.0,4.0,68,0.00,,,0.00,meteohub,2013-07-30 15:47:00,
2013-07-30 11:52:00,71.4,59.0,30.27,South,191,1.0,4.0,65,0.00,,,0.00,meteohub,2013-07-30 15:52:00,
2013-07-30 11:58:00,72.0,58.6,30.27,SSW,204,2.0,3.0,63,0.00,,,0.00,meteohub,2013-07-30 15:58:00,
2013-07-30 12:03:00,72.0,58.6,30.27,SSW,204,1.0,3.0,63,0.00,,,0.00,meteohub,2013-07-30 16:03:00,
2013-07-30 12:09:00,71.8,60.6,30.27,SSW,205,0.0,3.0,68,0.00,,,0.00,meteohub,2013-07-30 16:09:00,
2013-07-30 12:14:00,71.8,60.3,30.26,SSW,205,0.0,3.0,67,0.00,,,0.00,meteohub,2013-07-30 16:14:00,
2013-07-30 12:19:00,72.1,60.6,30.26,NE,43,3.0,3.0,67,0.00,,,0.00,meteohub,2013-07-30 16:19:00,
2013-07-30 12:24:00,72.1,58.5,30.26,ENE,66,2.0,3.0,62,0.00,,,0.00,meteohub,2013-07-30 16:24:00,
2013-07-30 12:29:00,72.0,59.5,30.26,NNE,23,0.0,7.0,65,0.00,,,0.00,meteohub,2013-07-30 16:29:00,
2013-07-30 12:34:00,72.0,59.9,30.25,North,355,0.0,7.0,66,0.00,,,0.00,meteohub,2013-07-30 16:34:00,
2013-07-30 12:39:00,71.8,60.6,30.25,North,355,0.0,7.0,68,0.00,,,0.00,meteohub,2013-07-30 16:39:00,
2013-07-30 12:44:00,71.4,60.8,30.25,NNE,17,0.0,4.0,69,0.00,,,0.00,meteohub,2013-07-30 16:44:00,
2013-07-30 12:49:00,71.2,61.7,30.25,NNE,29,0.0,4.0,72,0.00,,,0.00,meteohub,2013-07-30 16:49:00,
2013-07-30 12:54:00,71.2,59.4,30.25,NE,53,1.0,3.0,66,0.00,,,0.00,meteohub,2013-07-30 16:54:00,
2013-07-30 12:59:00,71.4,60.8,30.25,NE,51,0.0,3.0,69,0.00,,,0.00,meteohub,2013-07-30 16:59:00,
2013-07-30 13:05:00,71.8,61.0,30.25,NE,51,0.0,3.0,69,0.00,,,0.00,meteohub,2013-07-30 17:05:00,
2013-07-30 13:10:00,72.3,59.9,30.25,North,350,1.0,5.0,65,0.00,,,0.00,meteohub,2013-07-30 17:10:00,
2013-07-30 13:15:00,72.5,61.0,30.25,North,0,0.0,4.0,67,0.00,,,0.00,meteohub,2013-07-30 17:15:00,
2013-07-30 13:20:00,72.3,60.8,30.25,North,0,0.0,4.0,67,0.00,,,0.00,meteohub,2013-07-30 17:20:00,
2013-07-30 13:25:00,72.1,61.3,30.25,North,0,0.0,3.0,69,0.00,,,0.00,meteohub,2013-07-30 17:25:00,
2013-07-30 13:30:00,72.1,61.0,30.25,North,0,0.0,3.0,68,0.00,,,0.00,meteohub,2013-07-30 17:30:00,
2013-07-30 13:36:00,72.1,61.0,30.24,NNE,17,0.0,5.0,68,0.00,,,0.00,meteohub,2013-07-30 17:36:00,
2013-07-30 13:41:00,72.1,61.3,30.24,NE,41,2.0,5.0,69,0.00,,,0.00,meteohub,2013-07-30 17:41:00,
2013-07-30 13:46:00,72.1,60.6,30.24,NNW,348,0.0,5.0,67,0.00,,,0.00,meteohub,2013-07-30 17:46:00,
2013-07-30 13:51:00,72.7,61.2,30.24,East,82,4.0,5.0,67,0.00,,,0.00,meteohub,2013-07-30 17:51:00,
2013-07-30 13:57:00,72.7,61.5,30.24,North,351,0.0,6.0,68,0.00,,,0.00,meteohub,2013-07-30 17:57:00,
2013-07-30 14:02:00,72.9,61.7,30.24,North,355,0.0,6.0,68,0.00,,,0.00,meteohub,2013-07-30 18:02:00,
2013-07-30 14:07:00,72.9,60.4,30.24,NNW,339,4.0,6.0,65,0.00,,,0.00,meteohub,2013-07-30 18:07:00,
2013-07-30 14:12:00,72.7,60.3,30.24,North,350,1.0,6.0,65,0.00,,,0.00,meteohub,2013-07-30 18:12:00,
2013-07-30 14:17:00,72.5,61.0,30.24,ENE,57,0.0,6.0,67,0.00,,,0.00,meteohub,2013-07-30 18:17:00,
2013-07-30 14:22:00,72.3,61.2,30.24,NNE,31,0.0,6.0,68,0.00,,,0.00,meteohub,2013-07-30 18:22:00,
2013-07-30 14:27:00,72.5,62.2,30.24,NNE,31,0.0,4.0,70,0.00,,,0.00,meteohub,2013-07-30 18:27:00,
2013-07-30 14:32:00,72.9,61.3,30.24,East,88,0.0,4.0,67,0.00,,,0.00,meteohub,2013-07-30 18:32:00,
2013-07-30 14:37:00,73.0,61.5,30.24,SSE,147,1.0,2.0,67,0.00,,,0.00,meteohub,2013-07-30 18:37:00,
2013-07-30 14:42:00,73.0,60.6,30.24,North,350,0.0,2.0,65,0.00,,,0.00,meteohub,2013-07-30 18:42:00,
2013-07-30 14:47:00,73.0,62.2,30.24,North,350,0.0,5.0,69,0.00,,,0.00,meteohub,2013-07-30 18:47:00,
2013-07-30 14:52:00,73.2,61.5,30.24,NE,36,0.0,5.0,67,0.00,,,0.00,meteohub,2013-07-30 18:52:00,
2013-07-30 14:57:00,73.6,60.6,30.24,NE,34,0.0,4.0,64,0.00,,,0.00,meteohub,2013-07-30 18:57:00,
2013-07-30 15:03:00,73.8,61.7,30.24,NNE,30,1.0,4.0,66,0.00,,,0.00,meteohub,2013-07-30 19:03:00,
2013-07-30 15:08:00,73.6,61.2,30.23,NE,50,6.0,6.0,65,0.00,,,0.00,meteohub,2013-07-30 19:08:00,
2013-07-30 15:13:00,72.9,61.7,30.23,NE,53,3.0,10.0,68,0.00,,,0.00,meteohub,2013-07-30 19:13:00,
2013-07-30 15:19:00,72.5,62.2,30.24,NE,55,5.0,10.0,70,0.00,,,0.00,meteohub,2013-07-30 19:19:00,
2013-07-30 15:24:00,72.1,62.6,30.24,ENE,63,1.0,10.0,72,0.00,,,0.00,meteohub,2013-07-30 19:24:00,
2013-07-30 15:29:00,72.1,61.9,30.24,NE,44,0.0,10.0,70,0.00,,,0.00,meteohub,2013-07-30 19:29:00,
2013-07-30 15:34:00,72.3,61.5,30.23,NE,40,3.0,8.0,69,0.00,,,0.00,meteohub,2013-07-30 19:34:00,
2013-07-30 15:40:00,72.1,61.3,30.23,NE,40,3.0,8.0,69,0.00,,,0.00,meteohub,2013-07-30 19:40:00,
2013-07-30 15:45:00,72.1,61.3,30.23,NNE,13,4.0,7.0,69,0.00,,,0.00,meteohub,2013-07-30 19:45:00,
2013-07-30 15:51:00,72.1,61.0,30.23,ENE,58,3.0,7.0,68,0.00,,,0.00,meteohub,2013-07-30 19:51:00,
2013-07-30 15:56:00,72.0,60.8,30.22,NW,311,2.0,7.0,68,0.00,,,0.00,meteohub,2013-07-30 19:56:00,
2013-07-30 16:02:00,72.1,62.2,30.22,North,10,3.0,7.0,71,0.00,,,0.00,meteohub,2013-07-30 20:02:00,
2013-07-30 16:07:00,72.1,61.0,30.22,NNE,18,4.0,10.0,68,0.00,,,0.00,meteohub,2013-07-30 20:07:00,
2013-07-30 16:12:00,72.1,61.9,30.22,NNE,31,0.0,10.0,70,0.00,,,0.00,meteohub,2013-07-30 20:12:00,
2013-07-30 16:17:00,72.0,61.2,30.22,NNE,25,5.0,10.0,69,0.00,,,0.00,meteohub,2013-07-30 20:17:00,
2013-07-30 16:22:00,72.0,60.8,30.22,ESE,115,4.0,10.0,68,0.00,,,0.00,meteohub,2013-07-30 20:22:00,
2013-07-30 16:27:00,72.1,61.0,30.22,NW,325,3.0,8.0,68,0.00,,,0.00,meteohub,2013-07-30 20:27:00,
2013-07-30 16:33:00,72.7,61.5,30.22,NNW,341,0.0,8.0,68,0.00,,,0.00,meteohub,2013-07-30 20:33:00,
2013-07-30 16:38:00,72.7,61.9,30.22,NE,54,1.0,7.0,69,0.00,,,0.00,meteohub,2013-07-30 20:38:00,
2013-07-30 16:44:00,72.7,60.6,30.21,North,9,0.0,7.0,66,0.00,,,0.00,meteohub,2013-07-30 20:44:00,
2013-07-30 16:49:00,72.5,61.3,30.21,NE,52,3.0,7.0,68,0.00,,,0.00,meteohub,2013-07-30 20:49:00,
2013-07-30 16:54:00,72.5,62.2,30.21,NNE,30,1.0,5.0,70,0.00,,,0.00,meteohub,2013-07-30 20:54:00,
2013-07-30 16:59:00,72.5,62.2,30.21,NE,41,0.0,5.0,70,0.00,,,0.00,meteohub,2013-07-30 20:59:00,
2013-07-30 17:04:00,72.7,62.8,30.22,NNW,348,0.0,5.0,71,0.00,,,0.00,meteohub,2013-07-30 21:04:00,
2013-07-30 17:10:00,72.7,62.2,30.21,NNE,13,0.0,5.0,70,0.00,,,0.00,meteohub,2013-07-30 21:10:00,
2013-07-30 17:15:00,72.5,62.6,30.21,NE,53,2.0,6.0,71,0.00,,,0.00,meteohub,2013-07-30 21:15:00,
2013-07-30 17:20:00,72.0,61.2,30.21,ENE,62,2.0,6.0,69,0.00,,,0.00,meteohub,2013-07-30 21:20:00,
2013-07-30 17:26:00,71.8,61.9,30.21,NE,42,4.0,7.0,71,0.00,,,0.00,meteohub,2013-07-30 21:26:00,
2013-07-30 17:31:00,72.0,62.4,30.21,ENE,63,2.0,7.0,72,0.00,,,0.00,meteohub,2013-07-30 21:31:00,
2013-07-30 17:36:00,72.0,62.1,30.21,North,355,3.0,6.0,71,0.00,,,0.00,meteohub,2013-07-30 21:36:00,
2013-07-30 17:42:00,71.8,61.5,30.21,NNW,346,2.0,6.0,70,0.00,,,0.00,meteohub,2013-07-30 21:42:00,
2013-07-30 17:47:00,71.8,62.2,30.21,NNW,346,0.0,5.0,72,0.00,,,0.00,meteohub,2013-07-30 21:47:00,
2013-07-30 17:52:00,71.4,61.9,30.21,North,5,3.0,5.0,72,0.00,,,0.00,meteohub,2013-07-30 21:52:00,
2013-07-30 17:57:00,71.2,61.7,30.21,NNE,12,0.0,5.0,72,0.00,,,0.00,meteohub,2013-07-30 21:57:00,
2013-07-30 18:02:00,71.2,61.7,30.21,NE,46,0.0,5.0,72,0.00,,,0.00,meteohub,2013-07-30 22:02:00,
2013-07-30 18:08:00,71.4,61.9,30.21,ENE,59,0.0,7.0,72,0.00,,,0.00,meteohub,2013-07-30 22:08:00,
2013-07-30 18:13:00,71.2,61.3,30.21,NE,35,1.0,7.0,71,0.00,,,0.00,meteohub,2013-07-30 22:13:00,
2013-07-30 18:18:00,71.1,61.9,30.21,NNW,348,0.0,5.0,73,0.00,,,0.00,meteohub,2013-07-30 22:18:00,
2013-07-30 18:24:00,71.1,61.9,30.21,NNW,336,0.0,5.0,73,0.00,,,0.00,meteohub,2013-07-30 22:24:00,
2013-07-30 18:29:00,70.9,61.9,30.21,NNW,338,0.0,5.0,73,0.00,,,0.00,meteohub,2013-07-30 22:29:00,
2013-07-30 18:35:00,70.7,61.2,30.21,North,355,0.0,5.0,72,0.00,,,0.00,meteohub,2013-07-30 22:35:00,
2013-07-30 18:40:00,70.5,61.0,30.21,NE,52,0.0,5.0,72,0.00,,,0.00,meteohub,2013-07-30 22:40:00,
2013-07-30 18:45:00,70.5,61.5,30.21,NE,43,0.0,4.0,73,0.00,,,0.00,meteohub,2013-07-30 22:45:00,
2013-07-30 18:50:00,70.3,61.3,30.21,NE,43,0.0,4.0,73,0.00,,,0.00,meteohub,2013-07-30 22:50:00,
2013-07-30 18:55:00,70.3,61.3,30.20,NE,42,0.0,4.0,73,0.00,,,0.00,meteohub,2013-07-30 22:55:00,
2013-07-30 19:01:00,70.3,61.7,30.21,North,9,1.0,4.0,74,0.00,,,0.00,meteohub,2013-07-30 23:01:00,
2013-07-30 19:06:00,70.2,61.5,30.20,NNE,17,2.0,3.0,74,0.00,,,0.00,meteohub,2013-07-30 23:06:00,
2013-07-30 19:12:00,70.0,61.3,30.20,NNE,17,0.0,3.0,74,0.00,,,0.00,meteohub,2013-07-30 23:12:00,
2013-07-30 19:17:00,70.0,61.3,30.21,NNE,17,0.0,3.0,74,0.00,,,0.00,meteohub,2013-07-30 23:17:00,
2013-07-30 19:22:00,69.8,61.5,30.20,NNE,17,0.0,3.0,75,0.00,,,0.00,meteohub,2013-07-30 23:22:00,
2013-07-30 19:27:00,69.6,61.3,30.20,NNE,17,0.0,2.0,75,0.00,,,0.00,meteohub,2013-07-30 23:27:00,
2013-07-30 19:32:00,69.6,61.3,30.20,NNE,17,0.0,2.0,75,0.00,,,0.00,meteohub,2013-07-30 23:32:00,
2013-07-30 19:38:00,69.4,61.9,30.20,NNE,17,0.0,2.0,77,0.00,,,0.00,meteohub,2013-07-30 23:38:00,
2013-07-30 19:43:00,69.3,61.3,30.20,NNE,17,0.0,2.0,76,0.00,,,0.00,meteohub,2013-07-30 23:43:00,
2013-07-30 19:48:00,69.3,61.7,30.20,NNE,17,0.0,1.0,77,0.00,,,0.00,meteohub,2013-07-30 23:48:00,
2013-07-30 19:54:00,69.1,61.5,30.20,NNE,17,0.0,0.0,77,0.00,,,0.00,meteohub,2013-07-30 23:54:00,
2013-07-30 19:59:00,68.7,61.2,30.20,NNE,17,0.0,0.0,77,0.00,,,0.00,meteohub,2013-07-30 23:59:00,
2013-07-30 20:04:00,68.5,61.0,30.20,NNE,17,0.0,0.0,77,0.00,,,0.00,meteohub,2013-07-31 00:04:00,
2013-07-30 20:10:00,68.4,61.2,30.20,NNE,17,0.0,0.0,78,0.00,,,0.00,meteohub,2013-07-31 00:10:00,
2013-07-30 20:15:00,68.0,60.8,30.20,NNE,17,0.0,0.0,78,0.00,,,0.00,meteohub,2013-07-31 00:15:00,
2013-07-30 20:20:00,67.6,61.0,30.20,NNE,17,0.0,0.0,79,0.00,,,0.00,meteohub,2013-07-31 00:20:00,
2013-07-30 20:25:00,67.5,61.3,30.20,NNE,17,0.0,0.0,81,0.00,,,0.00,meteohub,2013-07-31 00:25:00,
2013-07-30 20:31:00,66.9,61.0,30.20,NNE,17,0.0,0.0,81,0.00,,,0.00,meteohub,2013-07-31 00:31:00,
2013-07-30 20:36:00,66.6,61.2,30.20,NNE,17,0.0,0.0,83,0.00,,,0.00,meteohub,2013-07-31 00:36:00,
2013-07-30 20:42:00,66.0,61.0,30.20,NNE,17,0.0,0.0,84,0.00,,,0.00,meteohub,2013-07-31 00:42:00,
2013-07-30 20:47:00,65.5,60.4,30.20,NNE,17,0.0,0.0,84,0.00,,,0.00,meteohub,2013-07-31 00:47:00,
2013-07-30 20:52:00,65.3,61.0,30.20,NNE,17,0.0,0.0,86,0.00,,,0.00,meteohub,2013-07-31 00:52:00,
2013-07-30 20:57:00,64.8,60.8,30.20,NNE,17,0.0,0.0,87,0.00,,,0.00,meteohub,2013-07-31 00:57:00,
2013-07-30 21:02:00,64.6,60.6,30.20,NNE,17,0.0,0.0,87,0.00,,,0.00,meteohub,2013-07-31 01:02:00,
2013-07-30 21:07:00,64.0,60.1,30.20,NNE,17,0.0,0.0,87,0.00,,,0.00,meteohub,2013-07-31 01:07:00,
2013-07-30 21:12:00,63.9,60.3,30.20,NNE,17,0.0,0.0,88,0.00,,,0.00,meteohub,2013-07-31 01:12:00,
2013-07-30 21:17:00,63.7,60.4,30.20,NNE,17,0.0,0.0,89,0.00,,,0.00,meteohub,2013-07-31 01:17:00,
2013-07-30 21:23:00,63.1,60.1,30.20,NNE,17,0.0,0.0,90,0.00,,,0.00,meteohub,2013-07-31 01:23:00,
2013-07-30 21:28:00,63.0,59.9,30.20,NNE,17,0.0,0.0,90,0.00,,,0.00,meteohub,2013-07-31 01:28:00,
2013-07-30 21:33:00,62.8,60.1,30.20,NNE,17,0.0,0.0,91,0.00,,,0.00,meteohub,2013-07-31 01:33:00,
2013-07-30 21:39:00,62.4,59.7,30.20,NNE,17,0.0,0.0,91,0.00,,,0.00,meteohub,2013-07-31 01:39:00,
2013-07-30 21:44:00,62.2,59.9,30.20,NNE,17,0.0,0.0,92,0.00,,,0.00,meteohub,2013-07-31 01:44:00,
2013-07-30 21:49:00,62.1,59.7,30.21,NNE,17,0.0,0.0,92,0.00,,,0.00,meteohub,2013-07-31 01:49:00,
2013-07-30 21:55:00,61.9,59.9,30.21,NNE,17,0.0,0.0,93,0.00,,,0.00,meteohub,2013-07-31 01:55:00,
2013-07-30 22:00:00,61.9,59.9,30.21,NNE,17,0.0,0.0,93,0.00,,,0.00,meteohub,2013-07-31 02:00:00,
2013-07-30 22:05:00,61.5,59.5,30.21,NNE,17,0.0,0.0,93,0.00,,,0.00,meteohub,2013-07-31 02:05:00,
2013-07-30 22:10:00,61.3,59.4,30.21,NNE,17,0.0,1.0,93,0.00,,,0.00,meteohub,2013-07-31 02:10:00,
2013-07-30 22:16:00,61.3,59.5,30.20,NNE,17,0.0,0.0,94,0.00,,,0.00,meteohub,2013-07-31 02:16:00,
2013-07-30 22:21:00,61.3,59.5,30.20,NNE,17,0.0,0.0,94,0.00,,,0.00,meteohub,2013-07-31 02:21:00,
2013-07-30 22:27:00,61.3,59.5,30.20,NNE,17,0.0,0.0,94,0.00,,,0.00,meteohub,2013-07-31 02:27:00,
2013-07-30 22:32:00,61.3,59.5,30.20,NNE,17,0.0,0.0,94,0.00,,,0.00,meteohub,2013-07-31 02:32:00,
2013-07-30 22:37:00,61.0,59.2,30.20,NNE,17,0.0,0.0,94,0.00,,,0.00,meteohub,2013-07-31 02:37:00,
2013-07-30 22:43:00,60.8,59.0,30.20,NNE,17,0.0,0.0,94,0.00,,,0.00,meteohub,2013-07-31 02:43:00,
2013-07-30 22:48:00,60.6,58.8,30.20,NNE,17,0.0,0.0,94,0.00,,,0.00,meteohub,2013-07-31 02:48:00,
2013-07-30 22:53:00,60.4,58.6,30.20,NNE,17,0.0,0.0,94,0.00,,,0.00,meteohub,2013-07-31 02:53:00,
2013-07-30 22:59:00,60.4,58.6,30.20,NNE,17,0.0,0.0,94,0.00,,,0.00,meteohub,2013-07-31 02:59:00,
2013-07-30 23:04:00,60.3,58.8,30.20,NNE,17,0.0,0.0,95,0.00,,,0.00,meteohub,2013-07-31 03:04:00,
2013-07-30 23:09:00,60.3,58.8,30.20,NNE,17,0.0,0.0,95,0.00,,,0.00,meteohub,2013-07-31 03:09:00,
2013-07-30 23:15:00,60.1,58.3,30.20,NNE,17,0.0,0.0,94,0.00,,,0.00,meteohub,2013-07-31 03:15:00,
2013-07-30 23:20:00,59.9,58.5,30.20,NNE,17,0.0,0.0,95,0.00,,,0.00,meteohub,2013-07-31 03:20:00,
2013-07-30 23:25:00,59.7,58.3,30.20,NNE,17,0.0,0.0,95,0.00,,,0.00,meteohub,2013-07-31 03:25:00,
2013-07-30 23:30:00,59.7,58.3,30.20,NNE,17,0.0,0.0,95,0.00,,,0.00,meteohub,2013-07-31 03:30:00,
2013-07-30 23:35:00,59.5,58.1,30.20,NNE,17,0.0,0.0,95,0.00,,,0.00,meteohub,2013-07-31 03:35:00,
2013-07-30 23:41:00,59.4,57.9,30.20,NNE,17,0.0,0.0,95,0.00,,,0.00,meteohub,2013-07-31 03:41:00,
2013-07-30 23:46:00,59.4,57.9,30.20,NNE,17,0.0,0.0,95,0.00,,,0.00,meteohub,2013-07-31 03:46:00,
2013-07-30 23:52:00,59.4,57.9,30.20,NNE,17,0.0,0.0,95,0.00,,,0.00,meteohub,2013-07-31 03:52:00,
2013-07-30 23:57:00,59.2,57.7,30.20,NNE,17,0.0,0.0,95,0.00,,,0.00,meteohub,2013-07-31 03:57:00,